createdAt,value
2023-04-16T00:00:09.842Z,9.70
2023-04-16T00:01:42.639Z,9.60
2023-04-16T00:03:15.613Z,9.60
2023-04-16T00:04:49.852Z,9.60
2023-04-16T00:06:23.617Z,9.60
2023-04-16T00:07:56.314Z,9.60
2023-04-16T00:09:29.030Z,9.60
2023-04-16T00:11:01.711Z,9.60
2023-04-16T00:12:34.452Z,9.60
2023-04-16T00:14:07.157Z,9.60
2023-04-16T00:15:38.909Z,9.70
2023-04-16T00:17:11.667Z,9.70
2023-04-16T00:18:44.360Z,9.70
2023-04-16T00:20:20.051Z,9.70
2023-04-16T00:21:52.758Z,9.70
2023-04-16T00:23:25.242Z,9.70
2023-04-16T00:24:57.933Z,9.70
2023-04-16T00:26:30.626Z,9.60
2023-04-16T00:28:03.447Z,9.60
2023-04-16T00:29:35.195Z,9.60
2023-04-16T00:31:07.966Z,9.60
2023-04-16T00:32:40.795Z,9.60
2023-04-16T00:34:12.646Z,9.60
2023-04-16T00:35:48.183Z,9.60
2023-04-16T00:37:19.959Z,9.60
2023-04-16T00:38:52.766Z,9.60
2023-04-16T00:40:27.421Z,9.60
2023-04-16T00:42:00.155Z,9.60
2023-04-16T00:43:32.836Z,9.60
2023-04-16T00:45:06.533Z,9.60
2023-04-16T00:46:39.211Z,9.60
2023-04-16T00:48:12.164Z,9.60
2023-04-16T00:49:44.963Z,9.60
2023-04-16T00:51:21.292Z,9.70
2023-04-16T00:52:53.194Z,9.70
2023-04-16T00:54:26.620Z,9.70
2023-04-16T00:56:00.024Z,9.70
2023-04-16T00:57:32.773Z,9.70
2023-04-16T00:59:05.713Z,9.70
2023-04-16T01:00:37.502Z,9.70
2023-04-16T01:02:10.421Z,9.70
2023-04-16T01:03:46.800Z,9.70
2023-04-16T01:05:19.759Z,9.80
2023-04-16T01:06:53.923Z,9.70
2023-04-16T01:08:26.762Z,9.70
2023-04-16T01:09:59.523Z,9.70
2023-04-16T01:11:32.562Z,9.70
2023-04-16T01:13:05.585Z,9.60
2023-04-16T01:14:37.375Z,9.60
2023-04-16T01:16:11.486Z,9.60
2023-04-16T01:17:46.466Z,9.50
2023-04-16T01:19:18.242Z,9.50
2023-04-16T01:20:52.691Z,9.50
2023-04-16T01:22:25.386Z,9.50
2023-04-16T01:23:58.064Z,9.50
2023-04-16T01:25:30.762Z,9.50
2023-04-16T01:27:03.465Z,9.50
2023-04-16T01:28:36.335Z,9.50
2023-04-16T01:30:09.756Z,9.50
2023-04-16T01:31:42.462Z,9.50
2023-04-16T01:33:15.788Z,9.50
2023-04-16T01:34:48.619Z,9.50
2023-04-16T01:36:22.654Z,9.50
2023-04-16T01:37:54.540Z,9.50
2023-04-16T01:39:27.238Z,9.40
2023-04-16T01:40:59.555Z,9.40
2023-04-16T01:42:32.870Z,9.40
2023-04-16T01:44:04.841Z,9.40
2023-04-16T01:45:37.667Z,9.40
2023-04-16T01:47:10.361Z,9.40
2023-04-16T01:48:43.425Z,9.40
2023-04-16T01:50:16.111Z,9.40
2023-04-16T01:51:50.402Z,9.40
2023-04-16T01:53:23.526Z,9.40
2023-04-16T01:54:56.374Z,9.40
2023-04-16T01:56:29.104Z,9.40
2023-04-16T01:58:01.814Z,9.40
2023-04-16T01:59:34.502Z,9.40
2023-04-16T02:01:07.403Z,9.40
2023-04-16T02:02:40.972Z,9.40
2023-04-16T02:04:13.998Z,9.40
2023-04-16T02:05:47.244Z,9.30
2023-04-16T02:07:21.430Z,9.30
2023-04-16T02:08:54.119Z,9.30
2023-04-16T02:10:26.049Z,9.30
2023-04-16T02:11:58.781Z,9.30
2023-04-16T02:13:30.617Z,9.30
2023-04-16T02:15:03.583Z,9.30
2023-04-16T02:16:36.307Z,9.40
2023-04-16T02:18:09.080Z,9.30
2023-04-16T02:19:41.851Z,9.40
2023-04-16T02:21:14.526Z,9.40
2023-04-16T02:22:47.598Z,9.40
2023-04-16T02:24:20.630Z,9.40
2023-04-16T02:25:52.398Z,9.40
2023-04-16T02:27:25.178Z,9.40
2023-04-16T02:28:57.928Z,9.40
2023-04-16T02:30:31.168Z,9.40
2023-04-16T02:32:03.980Z,9.40
2023-04-16T02:33:36.811Z,9.40
2023-04-16T02:35:08.705Z,9.40
2023-04-16T02:36:42.043Z,9.40
2023-04-16T02:38:16.094Z,9.40
2023-04-16T02:39:49.737Z,9.40
2023-04-16T02:41:21.538Z,9.50
2023-04-16T02:42:54.268Z,9.40
2023-04-16T02:44:26.965Z,9.50
2023-04-16T02:46:02.985Z,9.40
2023-04-16T02:47:34.774Z,9.40
2023-04-16T02:49:07.624Z,9.50
2023-04-16T02:50:40.633Z,9.50
2023-04-16T02:52:15.088Z,9.50
2023-04-16T02:53:49.756Z,9.50
2023-04-16T02:55:22.472Z,9.50
2023-04-16T02:56:55.160Z,9.50
2023-04-16T02:58:27.949Z,9.50
2023-04-16T03:00:00.840Z,9.50
2023-04-16T03:01:32.884Z,9.50
2023-04-16T03:03:05.723Z,9.50
2023-04-16T03:04:37.637Z,9.50
2023-04-16T03:06:10.405Z,9.50
2023-04-16T03:07:43.119Z,9.50
2023-04-16T03:09:16.484Z,9.50
2023-04-16T03:10:49.185Z,9.50
2023-04-16T03:12:21.902Z,9.60
2023-04-16T03:13:54.586Z,9.60
2023-04-16T03:15:27.154Z,9.60
2023-04-16T03:17:00.066Z,9.60
2023-04-16T03:18:32.795Z,9.60
2023-04-16T03:20:06.939Z,9.60
2023-04-16T03:21:38.663Z,9.60
2023-04-16T03:23:11.337Z,9.60
2023-04-16T03:24:45.345Z,9.70
2023-04-16T03:26:18.022Z,9.70
2023-04-16T03:27:50.981Z,9.70
2023-04-16T03:29:22.726Z,9.70
2023-04-16T03:30:55.516Z,9.70
2023-04-16T03:32:28.311Z,9.70
2023-04-16T03:34:01.040Z,9.70
2023-04-16T03:35:33.755Z,9.70
2023-04-16T03:37:06.566Z,9.70
2023-04-16T03:38:39.262Z,9.70
2023-04-16T03:40:14.467Z,9.70
2023-04-16T03:41:47.209Z,9.70
2023-04-16T03:43:19.963Z,9.70
2023-04-16T03:44:53.528Z,9.70
2023-04-16T03:46:26.350Z,9.60
2023-04-16T03:47:58.162Z,9.70
2023-04-16T03:49:30.875Z,9.60
2023-04-16T03:51:02.778Z,9.60
2023-04-16T03:52:36.082Z,9.60
2023-04-16T03:54:08.767Z,9.60
2023-04-16T03:55:42.252Z,9.60
2023-04-16T03:57:14.938Z,9.60
2023-04-16T03:58:46.691Z,9.50
2023-04-16T04:00:19.525Z,9.50
2023-04-16T04:01:52.304Z,9.50
2023-04-16T04:03:24.424Z,9.50
2023-04-16T04:04:57.264Z,9.60
2023-04-16T04:06:29.995Z,9.50
2023-04-16T04:08:02.712Z,9.50
2023-04-16T04:09:34.481Z,9.50
2023-04-16T04:11:08.628Z,9.50
2023-04-16T04:12:40.373Z,9.50
2023-04-16T04:14:13.063Z,9.50
2023-04-16T04:15:44.825Z,9.50
2023-04-16T04:17:17.508Z,9.50
2023-04-16T04:18:49.357Z,9.60
2023-04-16T04:20:22.116Z,9.60
2023-04-16T04:21:54.785Z,9.60
2023-04-16T04:23:27.452Z,9.60
2023-04-16T04:25:00.202Z,9.60
2023-04-16T04:26:34.292Z,9.60
2023-04-16T04:28:07.048Z,9.60
2023-04-16T04:29:39.735Z,9.60
2023-04-16T04:31:11.583Z,9.60
2023-04-16T04:32:44.368Z,9.60
2023-04-16T04:34:17.112Z,9.60
2023-04-16T04:35:49.800Z,9.60
2023-04-16T04:37:22.507Z,9.60
2023-04-16T04:38:55.362Z,9.60
2023-04-16T04:40:28.057Z,9.60
2023-04-16T04:42:03.078Z,9.60
2023-04-16T04:43:35.783Z,9.60
2023-04-16T04:45:10.123Z,9.60
2023-04-16T04:46:42.875Z,9.60
2023-04-16T04:48:15.702Z,9.60
2023-04-16T04:49:48.421Z,9.60
2023-04-16T04:51:21.126Z,9.60
2023-04-16T04:52:53.832Z,9.60
2023-04-16T04:54:26.521Z,9.70
2023-04-16T04:56:09.262Z,9.70
2023-04-16T04:57:46.649Z,9.70
2023-04-16T04:59:19.353Z,9.70
2023-04-16T05:00:51.176Z,9.70
2023-04-16T05:02:23.953Z,9.70
2023-04-16T05:03:56.731Z,9.70
2023-04-16T05:05:29.482Z,9.70
2023-04-16T05:07:02.553Z,9.70
2023-04-16T05:08:35.251Z,9.70
2023-04-16T05:10:09.464Z,9.70
2023-04-16T05:11:43.245Z,9.60
2023-04-16T05:13:17.276Z,9.60
2023-04-16T05:14:49.996Z,9.60
2023-04-16T05:16:22.765Z,9.60
2023-04-16T05:17:56.055Z,9.60
2023-04-16T05:19:28.339Z,9.60
2023-04-16T05:21:01.083Z,9.60
2023-04-16T05:22:34.126Z,9.60
2023-04-16T05:24:07.494Z,9.60
2023-04-16T05:25:40.172Z,9.70
2023-04-16T05:27:13.016Z,9.70
2023-04-16T05:28:47.055Z,9.70
2023-04-16T05:30:19.872Z,9.70
2023-04-16T05:31:52.681Z,9.70
2023-04-16T05:33:25.506Z,9.70
2023-04-16T05:34:58.178Z,9.70
2023-04-16T05:36:30.921Z,9.70
2023-04-16T05:38:04.317Z,9.60
2023-04-16T05:39:37.015Z,9.70
2023-04-16T05:41:09.700Z,9.70
2023-04-16T05:42:42.378Z,9.70
2023-04-16T05:44:16.400Z,9.70
2023-04-16T05:45:49.156Z,9.70
2023-04-16T05:47:21.962Z,9.60
2023-04-16T05:48:54.697Z,9.60
2023-04-16T05:50:27.418Z,9.60
2023-04-16T05:52:00.187Z,9.60
2023-04-16T05:53:32.977Z,9.60
2023-04-16T05:55:07.045Z,9.60
2023-04-16T05:56:39.734Z,9.60
2023-04-16T05:58:12.444Z,9.60
2023-04-16T05:59:46.478Z,9.70
2023-04-16T06:01:19.574Z,9.60
2023-04-16T06:02:52.562Z,9.60
2023-04-16T06:04:25.736Z,9.60
2023-04-16T06:05:58.433Z,9.70
2023-04-16T06:07:31.160Z,9.70
2023-04-16T06:09:04.281Z,9.70
2023-04-16T06:10:36.980Z,9.80
2023-04-16T06:12:10.506Z,9.80
2023-04-16T06:13:43.537Z,9.80
2023-04-16T06:15:17.655Z,9.90
2023-04-16T06:16:50.961Z,10.00
2023-04-16T06:18:23.643Z,10.00
2023-04-16T06:19:56.344Z,10.00
2023-04-16T06:21:29.834Z,10.10
2023-04-16T06:23:02.537Z,10.20
2023-04-16T06:24:35.347Z,10.30
2023-04-16T06:26:07.086Z,10.30
2023-04-16T06:27:39.792Z,10.40
2023-04-16T06:29:12.694Z,10.40
2023-04-16T06:30:47.760Z,10.50
2023-04-16T06:32:20.559Z,10.50
2023-04-16T06:33:53.325Z,10.60
2023-04-16T06:35:26.335Z,10.70
2023-04-16T06:36:59.048Z,10.70
2023-04-16T06:38:31.766Z,10.80
2023-04-16T06:40:04.978Z,10.80
2023-04-16T06:41:37.750Z,10.90
2023-04-16T06:43:10.548Z,11.00
2023-04-16T06:44:43.296Z,10.90
2023-04-16T06:46:17.397Z,10.90
2023-04-16T06:47:50.993Z,10.90
2023-04-16T06:49:23.803Z,10.80
2023-04-16T06:50:57.021Z,10.80
2023-04-16T06:52:29.263Z,10.70
2023-04-16T06:54:02.212Z,10.70
2023-04-16T06:55:34.906Z,10.60
2023-04-16T06:57:07.603Z,10.60
2023-04-16T06:58:40.360Z,10.50
2023-04-16T07:00:13.882Z,10.50
2023-04-16T07:01:48.100Z,10.50
2023-04-16T07:03:21.034Z,10.50
2023-04-16T07:04:53.908Z,10.50
2023-04-16T07:06:26.989Z,10.50
2023-04-16T07:08:00.112Z,10.40
2023-04-16T07:09:32.812Z,10.40
2023-04-16T07:11:06.199Z,10.40
2023-04-16T07:12:38.954Z,10.40
2023-04-16T07:14:11.984Z,10.40
2023-04-16T07:15:44.729Z,10.40
2023-04-16T07:17:18.751Z,10.40
2023-04-16T07:18:51.444Z,10.40
2023-04-16T07:20:24.176Z,10.40
2023-04-16T07:21:56.890Z,10.40
2023-04-16T07:23:29.557Z,10.40
2023-04-16T07:25:02.253Z,10.40
2023-04-16T07:26:34.969Z,10.40
2023-04-16T07:28:07.686Z,10.40
2023-04-16T07:29:39.693Z,10.40
2023-04-16T07:31:12.731Z,10.40
2023-04-16T07:32:46.843Z,10.40
2023-04-16T07:34:19.556Z,10.40
2023-04-16T07:35:52.465Z,10.40
2023-04-16T07:37:25.339Z,10.30
2023-04-16T07:38:58.041Z,10.30
2023-04-16T07:40:31.000Z,10.30
2023-04-16T07:42:03.805Z,10.20
2023-04-16T07:43:36.877Z,10.20
2023-04-16T07:45:10.562Z,10.20
2023-04-16T07:46:46.819Z,10.20
2023-04-16T07:48:22.588Z,10.20
2023-04-16T07:49:56.359Z,10.20
2023-04-16T07:51:29.105Z,10.20
2023-04-16T07:53:02.024Z,10.20
2023-04-16T07:54:34.733Z,10.20
2023-04-16T07:56:08.285Z,10.20
2023-04-16T07:57:41.130Z,10.20
2023-04-16T07:59:22.747Z,10.20
2023-04-16T08:00:56.747Z,10.20
2023-04-16T08:02:29.723Z,10.20
2023-04-16T08:04:04.032Z,10.20
2023-04-16T08:05:36.893Z,10.20
2023-04-16T08:07:09.757Z,10.20
2023-04-16T08:08:42.649Z,10.20
2023-04-16T08:10:15.603Z,10.20
2023-04-16T08:11:49.123Z,10.20
2023-04-16T08:13:22.077Z,10.20
2023-04-16T08:14:53.842Z,10.20
2023-04-16T08:16:26.642Z,10.20
2023-04-16T08:17:59.492Z,10.20
2023-04-16T08:19:33.639Z,10.20
2023-04-16T08:21:06.431Z,10.20
2023-04-16T08:22:39.145Z,10.20
2023-04-16T08:24:12.025Z,10.20
2023-04-16T08:25:44.731Z,10.20
2023-04-16T08:27:20.002Z,10.20
2023-04-16T08:28:53.115Z,10.20
2023-04-16T08:30:25.947Z,10.20
2023-04-16T08:31:58.798Z,10.20
2023-04-16T08:33:31.502Z,10.20
2023-04-16T08:35:06.289Z,10.20
2023-04-16T08:36:38.968Z,10.20
2023-04-16T08:38:11.727Z,10.20
2023-04-16T08:39:44.476Z,10.20
2023-04-16T08:41:17.269Z,10.30
2023-04-16T08:42:54.058Z,10.30
2023-04-16T08:44:29.383Z,10.30
2023-04-16T08:46:01.755Z,10.30
2023-04-16T08:47:36.263Z,10.30
2023-04-16T08:49:09.650Z,10.30
2023-04-16T08:50:45.546Z,10.30
2023-04-16T08:52:20.836Z,10.30
2023-04-16T08:53:55.127Z,10.30
2023-04-16T08:55:36.723Z,10.30
2023-04-16T08:57:11.772Z,10.20
2023-04-16T08:58:45.334Z,10.20
2023-04-16T09:00:18.245Z,10.30
2023-04-16T09:01:52.341Z,10.30
2023-04-16T09:03:25.308Z,10.30
2023-04-16T09:05:00.927Z,10.30
2023-04-16T09:06:35.748Z,10.30
2023-04-16T09:08:09.027Z,10.30
2023-04-16T09:09:43.683Z,10.20
2023-04-16T09:11:19.032Z,10.20
2023-04-16T09:12:52.025Z,10.20
2023-04-16T09:14:24.705Z,10.20
2023-04-16T09:15:58.423Z,10.20
2023-04-16T09:17:31.824Z,10.20
2023-04-16T09:19:04.610Z,10.20
2023-04-16T09:20:37.337Z,10.20
2023-04-16T09:22:11.407Z,10.20
2023-04-16T09:23:44.785Z,10.30
2023-04-16T09:25:17.496Z,10.30
2023-04-16T09:26:52.541Z,10.30
2023-04-16T09:28:41.723Z,10.30
2023-04-16T09:30:24.632Z,10.40
2023-04-16T09:32:03.948Z,10.40
2023-04-16T09:33:36.890Z,10.40
2023-04-16T09:35:09.952Z,10.40
2023-04-16T09:36:42.680Z,10.40
2023-04-16T09:38:17.343Z,10.40
2023-04-16T09:39:54.908Z,10.50
2023-04-16T09:41:29.105Z,10.50
2023-04-16T09:43:10.663Z,10.60
2023-04-16T09:44:43.385Z,10.60
2023-04-16T09:46:16.334Z,10.60
2023-04-16T09:47:49.190Z,10.70
2023-04-16T09:49:22.000Z,10.70
2023-04-16T09:50:54.730Z,10.70
2023-04-16T09:52:27.542Z,10.70
2023-04-16T09:54:05.762Z,10.80
2023-04-16T09:55:38.515Z,10.80
2023-04-16T09:57:11.293Z,10.80
2023-04-16T09:58:44.004Z,10.80
2023-04-16T10:00:20.588Z,10.90
2023-04-16T10:02:15.326Z,10.90
2023-04-16T10:03:50.917Z,10.90
2023-04-16T10:05:23.845Z,10.90
2023-04-16T10:07:06.742Z,11.00
2023-04-16T10:08:44.508Z,11.00
2023-04-16T10:10:18.774Z,11.00
2023-04-16T10:11:51.642Z,11.00
2023-04-16T10:13:27.680Z,11.00
2023-04-16T10:15:00.686Z,11.00
2023-04-16T10:16:34.551Z,10.90
2023-04-16T10:18:07.723Z,11.00
2023-04-16T10:19:41.236Z,10.90
2023-04-16T10:21:15.335Z,11.00
2023-04-16T10:22:48.161Z,11.00
2023-04-16T10:24:21.051Z,11.00
2023-04-16T10:25:57.483Z,11.00
2023-04-16T10:27:31.291Z,11.00
2023-04-16T10:29:04.968Z,11.00
2023-04-16T10:30:37.902Z,11.00
2023-04-16T10:32:10.992Z,11.00
2023-04-16T10:33:44.912Z,11.00
2023-04-16T10:35:20.819Z,11.00
2023-04-16T10:36:55.393Z,11.00
2023-04-16T10:38:29.303Z,11.00
2023-04-16T10:40:02.107Z,11.00
2023-04-16T10:41:37.551Z,11.00
2023-04-16T10:43:10.315Z,11.10
2023-04-16T10:44:45.436Z,11.10
2023-04-16T10:46:19.750Z,11.10
2023-04-16T10:47:52.634Z,11.10
2023-04-16T10:49:27.124Z,11.10
2023-04-16T10:51:00.953Z,11.10
2023-04-16T10:52:33.887Z,11.10
2023-04-16T10:54:23.847Z,11.10
2023-04-16T10:56:10.828Z,11.20
2023-04-16T10:57:44.952Z,11.20
2023-04-16T10:59:20.643Z,11.30
2023-04-16T11:00:54.082Z,11.30
2023-04-16T11:02:30.556Z,11.40
2023-04-16T11:04:44.361Z,11.40
2023-04-16T11:06:18.623Z,11.50
2023-04-16T11:07:51.364Z,11.50
2023-04-16T11:09:52.322Z,11.60
2023-04-16T11:11:25.062Z,11.70
2023-04-16T11:12:59.472Z,11.70
2023-04-16T11:14:32.226Z,11.70
2023-04-16T11:16:05.855Z,11.70
2023-04-16T11:17:40.160Z,11.80
2023-04-16T11:19:18.259Z,11.80
2023-04-16T11:20:52.265Z,11.80
2023-04-16T11:22:25.502Z,11.80
2023-04-16T11:23:58.949Z,11.80
2023-04-16T11:25:33.982Z,11.80
2023-04-16T11:27:06.735Z,11.90
2023-04-16T11:28:40.746Z,11.90
2023-04-16T11:30:14.172Z,11.90
2023-04-16T11:31:52.377Z,11.80
2023-04-16T11:33:26.544Z,11.80
2023-04-16T11:34:59.813Z,11.80
2023-04-16T11:36:44.195Z,11.80
2023-04-16T11:38:19.542Z,11.80
2023-04-16T11:39:53.030Z,11.80
2023-04-16T11:41:25.777Z,11.80
2023-04-16T11:43:02.986Z,11.80
2023-04-16T11:44:37.040Z,11.70
2023-04-16T11:46:20.581Z,11.70
2023-04-16T11:47:59.408Z,11.70
2023-04-16T11:49:32.339Z,11.70
2023-04-16T11:51:05.234Z,11.70
2023-04-16T11:52:38.067Z,11.80
2023-04-16T11:54:18.875Z,11.80
2023-04-16T11:55:51.572Z,11.80
2023-04-16T11:57:28.898Z,11.80
2023-04-16T11:59:08.819Z,11.80
2023-04-16T12:00:43.588Z,11.90
2023-04-16T12:02:16.385Z,11.80
2023-04-16T12:03:49.653Z,11.80
2023-04-16T12:05:31.884Z,11.80
2023-04-16T12:07:09.049Z,11.90
2023-04-16T12:08:41.739Z,11.90
2023-04-16T12:10:14.498Z,11.90
2023-04-16T12:11:47.223Z,11.90
2023-04-16T12:13:19.976Z,11.90
2023-04-16T12:14:56.660Z,11.90
2023-04-16T12:16:30.766Z,11.90
2023-04-16T12:18:10.107Z,11.90
2023-04-16T12:19:49.990Z,11.90
2023-04-16T12:21:22.669Z,11.90
2023-04-16T12:22:56.979Z,11.90
2023-04-16T12:24:33.358Z,11.90
2023-04-16T12:26:10.239Z,12.00
2023-04-16T12:27:46.446Z,12.00
2023-04-16T12:29:21.565Z,12.00
2023-04-16T12:30:54.358Z,12.00
2023-04-16T12:32:28.420Z,12.00
2023-04-16T12:34:03.355Z,12.00
2023-04-16T12:35:36.167Z,12.00
2023-04-16T12:37:09.566Z,12.10
2023-04-16T12:38:42.255Z,12.10
2023-04-16T12:40:15.108Z,12.10
2023-04-16T12:41:47.782Z,12.10
2023-04-16T12:43:23.380Z,12.10
2023-04-16T12:44:56.308Z,12.10
2023-04-16T12:46:29.054Z,12.10
2023-04-16T12:48:03.182Z,12.10
2023-04-16T12:49:36.971Z,12.10
2023-04-16T12:51:09.827Z,12.10
2023-04-16T12:52:42.618Z,12.10
2023-04-16T12:54:15.561Z,12.10
2023-04-16T12:55:48.362Z,12.10
2023-04-16T12:57:21.078Z,12.20
2023-04-16T12:58:53.783Z,12.20
2023-04-16T13:00:26.535Z,12.20
2023-04-16T13:01:59.392Z,12.20
2023-04-16T13:03:36.299Z,12.30
2023-04-16T13:05:09.808Z,12.30
2023-04-16T13:06:42.541Z,12.30
2023-04-16T13:08:15.408Z,12.30
2023-04-16T13:09:48.348Z,12.30
2023-04-16T13:11:21.468Z,12.40
2023-04-16T13:12:54.211Z,12.40
2023-04-16T13:14:27.143Z,12.40
2023-04-16T13:16:00.015Z,12.50
2023-04-16T13:17:32.816Z,12.50
2023-04-16T13:19:07.140Z,12.50
2023-04-16T13:20:40.080Z,12.50
2023-04-16T13:22:12.887Z,12.60
2023-04-16T13:23:45.647Z,12.70
2023-04-16T13:25:18.478Z,12.70
2023-04-16T13:26:52.579Z,12.70
2023-04-16T13:28:25.487Z,12.80
2023-04-16T13:29:58.193Z,12.80
2023-04-16T13:31:31.005Z,12.90
2023-04-16T13:33:03.887Z,13.00
2023-04-16T13:34:38.007Z,13.00
2023-04-16T13:36:10.718Z,13.00
2023-04-16T13:37:43.591Z,13.10
2023-04-16T13:39:16.392Z,13.00
2023-04-16T13:40:49.165Z,13.10
2023-04-16T13:42:22.008Z,13.20
2023-04-16T13:43:55.301Z,13.20
2023-04-16T13:45:28.051Z,13.30
2023-04-16T13:47:00.936Z,13.30
2023-04-16T13:48:33.711Z,13.30
2023-04-16T13:50:09.571Z,13.40
2023-04-16T13:51:46.533Z,13.40
2023-04-16T13:53:19.449Z,13.40
2023-04-16T13:54:52.155Z,13.40
2023-04-16T13:56:25.677Z,13.50
2023-04-16T13:57:58.597Z,13.50
2023-04-16T13:59:31.314Z,13.50
2023-04-16T14:01:04.100Z,13.60
2023-04-16T14:02:37.033Z,13.60
2023-04-16T14:04:09.863Z,13.60
2023-04-16T14:05:43.951Z,13.60
2023-04-16T14:07:17.091Z,13.70
2023-04-16T14:08:49.806Z,13.70
2023-04-16T14:10:22.607Z,13.70
2023-04-16T14:11:56.311Z,13.80
2023-04-16T14:13:29.133Z,13.80
2023-04-16T14:15:04.244Z,13.90
2023-04-16T14:16:37.017Z,13.80
2023-04-16T14:18:09.794Z,13.80
2023-04-16T14:19:42.833Z,13.80
2023-04-16T14:21:16.933Z,13.80
2023-04-16T14:22:49.741Z,13.80
2023-04-16T14:24:22.546Z,13.80
2023-04-16T14:25:56.064Z,13.80
2023-04-16T14:27:29.601Z,13.90
2023-04-16T14:29:02.400Z,14.00
2023-04-16T14:30:35.262Z,14.00
2023-04-16T14:32:08.622Z,14.00
2023-04-16T14:33:41.491Z,14.00
2023-04-16T14:35:14.185Z,14.00
2023-04-16T14:36:49.063Z,14.00
2023-04-16T14:38:21.892Z,14.00
2023-04-16T14:39:54.929Z,14.10
2023-04-16T14:41:27.623Z,14.20
2023-04-16T14:43:00.322Z,14.20
2023-04-16T14:44:33.123Z,14.20
2023-04-16T14:46:06.463Z,14.20
2023-04-16T14:47:45.583Z,14.20
2023-04-16T14:49:18.528Z,14.30
2023-04-16T14:50:51.217Z,14.30
2023-04-16T14:52:26.433Z,14.30
2023-04-16T14:53:59.191Z,14.30
2023-04-16T14:55:32.606Z,14.30
2023-04-16T14:57:05.550Z,14.30
2023-04-16T14:58:39.432Z,14.30
2023-04-16T15:00:17.128Z,14.30
2023-04-16T15:01:49.987Z,14.30
2023-04-16T15:03:23.066Z,14.30
2023-04-16T15:04:56.011Z,14.30
2023-04-16T15:06:29.461Z,14.40
2023-04-16T15:08:03.808Z,14.40
2023-04-16T15:09:36.547Z,14.40
2023-04-16T15:11:09.234Z,14.30
2023-04-16T15:12:41.959Z,14.30
2023-04-16T15:14:14.668Z,14.30
2023-04-16T15:15:47.410Z,14.30
2023-04-16T15:17:21.392Z,14.30
2023-04-16T15:18:54.132Z,14.30
2023-04-16T15:20:26.973Z,14.30
2023-04-16T15:22:00.346Z,14.30
2023-04-16T15:23:34.402Z,14.30
2023-04-16T15:25:07.967Z,14.30
2023-04-16T15:26:40.883Z,14.30
2023-04-16T15:28:13.573Z,14.30
2023-04-16T15:29:47.933Z,14.40
2023-04-16T15:31:21.147Z,14.40
2023-04-16T15:32:54.979Z,14.40
2023-04-16T15:34:28.318Z,14.40
2023-04-16T15:36:00.998Z,14.40
2023-04-16T15:37:33.750Z,14.40
2023-04-16T15:39:08.447Z,14.40
2023-04-16T15:40:42.232Z,14.40
2023-04-16T15:42:15.644Z,14.40
2023-04-16T15:43:48.359Z,14.40
2023-04-16T15:45:21.278Z,14.40
2023-04-16T15:46:53.987Z,14.40
2023-04-16T15:48:26.741Z,14.40
2023-04-16T15:49:59.429Z,14.40
2023-04-16T15:51:32.201Z,14.30
2023-04-16T15:53:05.078Z,14.30
2023-04-16T15:54:39.253Z,14.40
2023-04-16T15:56:12.284Z,14.30
2023-04-16T15:57:45.062Z,14.30
2023-04-16T15:59:17.790Z,14.20
2023-04-16T16:00:50.758Z,14.30
2023-04-16T16:02:23.595Z,14.30
2023-04-16T16:03:56.938Z,14.20
2023-04-16T16:05:29.702Z,14.20
2023-04-16T16:07:03.924Z,14.20
2023-04-16T16:08:38.157Z,14.20
2023-04-16T16:10:13.255Z,14.20
2023-04-16T16:11:46.450Z,14.20
2023-04-16T16:13:19.150Z,14.20
2023-04-16T16:14:51.941Z,14.20
2023-04-16T16:16:24.645Z,14.20
2023-04-16T16:17:57.886Z,14.20
2023-04-16T16:19:30.790Z,14.20
2023-04-16T16:21:03.584Z,14.30
2023-04-16T16:22:36.334Z,14.30
2023-04-16T16:24:09.324Z,14.30
2023-04-16T16:25:43.401Z,14.30
2023-04-16T16:27:16.264Z,14.40
2023-04-16T16:28:49.398Z,14.30
2023-04-16T16:30:22.084Z,14.40
2023-04-16T16:31:54.881Z,14.40
2023-04-16T16:33:28.511Z,14.40
2023-04-16T16:35:01.405Z,14.30
2023-04-16T16:36:36.627Z,14.40
2023-04-16T16:38:09.564Z,14.40
2023-04-16T16:39:42.293Z,14.30
2023-04-16T16:41:16.326Z,14.40
2023-04-16T16:42:49.097Z,14.30
2023-04-16T16:44:22.320Z,14.30
2023-04-16T16:45:55.016Z,14.30
2023-04-16T16:47:27.718Z,14.30
2023-04-16T16:49:00.440Z,14.20
2023-04-16T16:50:33.334Z,14.20
2023-04-16T16:52:06.235Z,14.20
2023-04-16T16:53:38.932Z,14.20
2023-04-16T16:55:11.935Z,14.20
2023-04-16T16:56:45.994Z,14.20
2023-04-16T16:58:18.741Z,14.20
2023-04-16T16:59:51.807Z,14.20
2023-04-16T17:01:24.644Z,14.20
2023-04-16T17:02:57.546Z,14.10
2023-04-16T17:04:30.392Z,14.10
2023-04-16T17:06:03.585Z,14.10
2023-04-16T17:07:36.324Z,14.10
2023-04-16T17:09:09.390Z,14.00
2023-04-16T17:10:43.482Z,14.00
2023-04-16T17:12:18.771Z,14.00
2023-04-16T17:13:51.476Z,14.00
2023-04-16T17:15:24.432Z,13.90
2023-04-16T17:16:57.249Z,13.90
2023-04-16T17:18:30.031Z,13.90
2023-04-16T17:20:08.002Z,13.80
2023-04-16T17:21:41.989Z,13.80
2023-04-16T17:23:14.992Z,13.70
2023-04-16T17:24:47.704Z,13.80
2023-04-16T17:26:20.396Z,13.70
2023-04-16T17:27:54.423Z,13.70
2023-04-16T17:29:27.114Z,13.70
2023-04-16T17:30:59.804Z,13.60
2023-04-16T17:32:33.324Z,13.60
2023-04-16T17:34:06.286Z,13.60
2023-04-16T17:35:40.847Z,13.60
2023-04-16T17:37:14.009Z,13.50
2023-04-16T17:38:46.762Z,13.50
2023-04-16T17:40:19.017Z,13.50
2023-04-16T17:41:54.650Z,13.50
2023-04-16T17:43:29.126Z,13.40
2023-04-16T17:45:02.066Z,13.40
2023-04-16T17:46:34.874Z,13.30
2023-04-16T17:48:07.759Z,13.30
2023-04-16T17:49:40.559Z,13.20
2023-04-16T17:51:16.162Z,13.20
2023-04-16T17:52:48.899Z,13.20
2023-04-16T17:54:21.618Z,13.10
2023-04-16T17:55:56.751Z,13.10
2023-04-16T17:57:29.827Z,13.10
2023-04-16T17:59:02.917Z,13.10
2023-04-16T18:00:35.602Z,13.10
2023-04-16T18:02:08.694Z,13.10
2023-04-16T18:03:41.979Z,13.00
2023-04-16T18:05:14.850Z,13.00
2023-04-16T18:06:47.540Z,13.00
2023-04-16T18:08:20.395Z,13.00
2023-04-16T18:09:53.070Z,12.90
2023-04-16T18:11:25.766Z,12.90
2023-04-16T18:12:58.457Z,12.80
2023-04-16T18:14:34.493Z,12.80
2023-04-16T18:16:07.812Z,12.80
2023-04-16T18:17:40.617Z,12.70
2023-04-16T18:19:13.418Z,12.70
2023-04-16T18:20:46.110Z,12.70
2023-04-16T18:22:18.820Z,12.60
2023-04-16T18:23:52.001Z,12.60
2023-04-16T18:25:33.913Z,12.60
2023-04-16T18:27:07.630Z,12.50
2023-04-16T18:28:40.451Z,12.50
2023-04-16T18:30:22.148Z,12.50
2023-04-16T18:31:59.291Z,12.40
2023-04-16T18:35:08.534Z,12.40
2023-04-16T18:36:41.308Z,12.40
2023-04-16T18:38:14.365Z,12.40
2023-04-16T18:39:47.053Z,12.40
2023-04-16T18:41:20.776Z,12.40
2023-04-16T18:42:53.465Z,12.40
2023-04-16T18:44:26.329Z,12.30
2023-04-16T18:46:00.343Z,12.30
2023-04-16T18:47:34.587Z,12.30
2023-04-16T18:49:07.297Z,12.30
2023-04-16T18:50:40.025Z,12.30
2023-04-16T18:52:12.735Z,12.30
2023-04-16T18:53:45.872Z,12.20
2023-04-16T18:55:18.987Z,12.20
2023-04-16T18:56:51.673Z,12.20
2023-04-16T18:58:24.461Z,12.20
2023-04-16T18:59:57.137Z,12.20
2023-04-16T19:01:31.338Z,12.10
2023-04-16T19:03:07.120Z,12.10
2023-04-16T19:04:40.411Z,12.10
2023-04-16T19:06:13.156Z,12.10
2023-04-16T19:07:45.882Z,12.00
2023-04-16T19:09:19.770Z,12.00
2023-04-16T19:10:52.471Z,12.00
2023-04-16T19:12:25.204Z,12.00
2023-04-16T19:13:58.379Z,12.00
2023-04-16T19:15:32.616Z,11.90
2023-04-16T19:17:07.869Z,12.00
2023-04-16T19:18:40.719Z,12.00
2023-04-16T19:20:13.758Z,11.90
2023-04-16T19:21:46.508Z,11.80
2023-04-16T19:23:19.192Z,11.80
2023-04-16T19:24:51.902Z,11.80
2023-04-16T19:26:24.628Z,11.80
2023-04-16T19:27:57.348Z,11.70
2023-04-16T19:29:33.888Z,11.70
2023-04-16T19:31:07.117Z,11.80
2023-04-16T19:32:41.212Z,11.80
2023-04-16T19:34:15.208Z,11.70
2023-04-16T19:35:48.358Z,11.70
2023-04-16T19:37:21.151Z,11.70
2023-04-16T19:38:53.871Z,11.70
2023-04-16T19:40:26.713Z,11.70
2023-04-16T19:41:59.398Z,11.60
2023-04-16T19:43:32.254Z,11.60
2023-04-16T19:45:05.868Z,11.60
2023-04-16T19:46:38.578Z,11.60
2023-04-16T19:48:13.211Z,11.60
2023-04-16T19:49:45.934Z,11.50
2023-04-16T19:51:18.747Z,11.50
2023-04-16T19:52:51.545Z,11.60
2023-04-16T19:54:24.264Z,11.60
2023-04-16T19:55:57.143Z,11.60
2023-04-16T19:57:29.819Z,11.50
2023-04-16T19:59:02.549Z,11.50
2023-04-16T20:00:37.131Z,11.50
2023-04-16T20:02:10.659Z,11.50
2023-04-16T20:03:44.803Z,11.50
2023-04-16T20:05:17.705Z,11.50
2023-04-16T20:06:50.433Z,11.50
2023-04-16T20:08:23.110Z,11.50
2023-04-16T20:09:55.853Z,11.40
2023-04-16T20:11:28.573Z,11.40
2023-04-16T20:13:01.295Z,11.40
2023-04-16T20:14:34.018Z,11.40
2023-04-16T20:16:08.277Z,11.50
2023-04-16T20:17:41.104Z,11.50
2023-04-16T20:19:17.124Z,11.40